createdAt,value
2022-10-09T00:02:21.449Z,9.30
2022-10-09T00:04:49.363Z,9.40
2022-10-09T00:07:17.178Z,9.40
2022-10-09T00:09:45.027Z,9.30
2022-10-09T00:12:12.794Z,9.30
2022-10-09T00:14:40.740Z,9.30
2022-10-09T00:17:08.686Z,9.30
2022-10-09T00:19:37.924Z,9.30
2022-10-09T00:22:05.710Z,9.30
2022-10-09T00:24:33.498Z,9.30
2022-10-09T00:27:02.915Z,9.20
2022-10-09T00:29:31.085Z,9.30
2022-10-09T00:31:58.936Z,9.20
2022-10-09T00:34:26.794Z,9.20
2022-10-09T00:37:03.772Z,9.10
2022-10-09T00:39:31.845Z,9.20
2022-10-09T00:41:59.631Z,9.10
2022-10-09T00:44:46.246Z,9.10
2022-10-09T00:47:16.778Z,9.00
2022-10-09T00:49:44.626Z,9.00
2022-10-09T00:52:13.927Z,9.00
2022-10-09T00:54:43.844Z,8.90
2022-10-09T00:57:11.809Z,8.90
2022-10-09T00:59:40.456Z,8.90
2022-10-09T01:02:08.488Z,8.90
2022-10-09T01:04:36.375Z,8.90
2022-10-09T01:07:09.615Z,8.90
2022-10-09T01:09:41.948Z,8.90
2022-10-09T01:12:13.773Z,8.90
2022-10-09T01:14:48.202Z,8.90
2022-10-09T01:17:19.930Z,8.80
2022-10-09T01:19:55.473Z,8.80
2022-10-09T01:22:32.098Z,8.70
2022-10-09T01:25:03.072Z,8.60
2022-10-09T01:27:33.727Z,8.60
2022-10-09T01:30:03.858Z,8.60
2022-10-09T01:32:33.355Z,8.50
2022-10-09T01:35:01.867Z,8.50
2022-10-09T01:37:31.522Z,8.50
2022-10-09T01:39:59.502Z,8.60
2022-10-09T01:42:28.701Z,8.70
2022-10-09T01:44:57.815Z,8.80
2022-10-09T01:47:25.706Z,8.90
2022-10-09T01:49:55.741Z,8.90
2022-10-09T01:52:34.469Z,9.00
2022-10-09T01:55:14.810Z,9.00
2022-10-09T01:57:46.809Z,9.10
2022-10-09T02:00:16.661Z,9.00
2022-10-09T02:02:45.110Z,9.00
2022-10-09T02:05:18.703Z,8.90
2022-10-09T02:07:46.534Z,8.90
2022-10-09T02:10:14.728Z,8.80
2022-10-09T02:12:44.544Z,8.80
2022-10-09T02:15:12.722Z,8.90
2022-10-09T02:17:44.905Z,8.90
2022-10-09T02:20:15.510Z,8.90
2022-10-09T02:22:43.433Z,9.00
2022-10-09T02:25:13.756Z,9.10
2022-10-09T02:27:41.658Z,9.20
2022-10-09T02:30:10.291Z,9.20
2022-10-09T02:32:39.573Z,9.30
2022-10-09T02:35:09.480Z,9.40
2022-10-09T02:37:37.303Z,9.40
2022-10-09T02:40:10.420Z,9.50
2022-10-09T02:42:38.723Z,9.50
2022-10-09T02:45:07.259Z,9.60
2022-10-09T02:47:35.147Z,9.60
2022-10-09T02:50:03.054Z,9.60
2022-10-09T02:52:32.313Z,9.60
2022-10-09T02:55:00.033Z,9.60
2022-10-09T02:57:27.904Z,9.60
2022-10-09T02:59:55.720Z,9.70
2022-10-09T03:02:23.760Z,9.70
2022-10-09T03:04:51.781Z,9.80
2022-10-09T03:07:19.733Z,9.80
2022-10-09T03:09:49.214Z,9.90
2022-10-09T03:12:21.315Z,10.00
2022-10-09T03:14:51.483Z,10.00
2022-10-09T03:17:19.409Z,10.00
2022-10-09T03:19:50.244Z,10.00
2022-10-09T03:22:17.960Z,10.10
2022-10-09T03:24:45.752Z,10.10
2022-10-09T03:27:14.959Z,10.30
2022-10-09T03:29:42.711Z,10.30
2022-10-09T03:32:10.533Z,10.30
2022-10-09T03:34:38.295Z,10.30
2022-10-09T03:37:06.036Z,10.20
2022-10-09T03:39:33.799Z,10.20
2022-10-09T03:42:01.490Z,10.10
2022-10-09T03:44:30.566Z,10.10
2022-10-09T03:46:58.365Z,10.10
2022-10-09T03:49:26.119Z,10.10
2022-10-09T03:51:53.849Z,10.10
2022-10-09T03:54:21.674Z,10.20
2022-10-09T03:56:49.391Z,10.20
2022-10-09T03:59:17.205Z,10.20
2022-10-09T04:01:46.362Z,10.20
2022-10-09T04:04:14.177Z,10.20
2022-10-09T04:06:42.090Z,10.20
2022-10-09T04:09:09.912Z,10.30
2022-10-09T04:11:37.619Z,10.30
2022-10-09T04:14:05.488Z,10.30
2022-10-09T04:16:33.319Z,10.30
2022-10-09T04:19:02.419Z,10.30
2022-10-09T04:21:30.169Z,10.10
2022-10-09T04:23:57.929Z,10.10
2022-10-09T04:26:25.648Z,10.00
2022-10-09T04:28:53.378Z,10.00
2022-10-09T04:31:21.268Z,9.90
2022-10-09T04:33:49.072Z,9.90
2022-10-09T04:36:18.253Z,9.90
2022-10-09T04:38:45.996Z,9.90
2022-10-09T04:41:13.922Z,10.00
2022-10-09T04:43:41.672Z,9.90
2022-10-09T04:46:11.852Z,9.90
2022-10-09T04:48:39.682Z,9.90
2022-10-09T04:51:07.977Z,10.00
2022-10-09T04:53:37.504Z,10.10
2022-10-09T04:56:06.093Z,10.10
2022-10-09T04:58:35.260Z,10.10
2022-10-09T05:01:06.875Z,10.20
2022-10-09T05:03:34.660Z,10.20
2022-10-09T05:06:02.941Z,10.10
2022-10-09T05:08:31.346Z,10.10
2022-10-09T05:11:04.084Z,10.10
2022-10-09T05:13:32.186Z,10.10
2022-10-09T05:16:02.448Z,10.10
2022-10-09T05:18:30.562Z,10.10
2022-10-09T05:20:58.480Z,10.00
2022-10-09T05:23:26.450Z,10.00
2022-10-09T05:25:57.563Z,10.00
2022-10-09T05:28:26.655Z,10.00
2022-10-09T05:30:54.669Z,10.00
2022-10-09T05:33:22.464Z,10.10
2022-10-09T05:35:53.556Z,10.10
2022-10-09T05:38:21.899Z,10.20
2022-10-09T05:40:53.037Z,10.20
2022-10-09T05:43:21.142Z,10.20
2022-10-09T05:45:50.334Z,10.30
2022-10-09T05:48:18.094Z,10.20
2022-10-09T05:50:45.816Z,10.10
2022-10-09T05:53:13.656Z,10.00
2022-10-09T05:55:41.512Z,9.90
2022-10-09T05:58:09.395Z,9.70
2022-10-09T06:00:37.151Z,9.60
2022-10-09T06:03:06.276Z,9.50
2022-10-09T06:05:34.043Z,9.50
2022-10-09T06:08:01.775Z,9.40
2022-10-09T06:10:32.491Z,9.40
2022-10-09T06:13:03.142Z,9.30
2022-10-09T06:15:30.934Z,9.30
2022-10-09T06:18:01.084Z,9.20
2022-10-09T06:20:30.302Z,9.30
2022-10-09T06:22:58.794Z,9.30
2022-10-09T06:25:26.659Z,9.40
2022-10-09T06:27:54.500Z,9.40
2022-10-09T06:30:22.279Z,9.40
2022-10-09T06:32:50.284Z,9.40
2022-10-09T06:35:18.388Z,9.40
2022-10-09T06:37:47.657Z,9.40
2022-10-09T06:40:15.346Z,9.50
2022-10-09T06:42:43.190Z,9.50
2022-10-09T06:45:11.036Z,9.40
2022-10-09T06:47:38.798Z,9.40
2022-10-09T06:50:07.169Z,9.50
2022-10-09T06:52:34.954Z,9.60
2022-10-09T06:55:04.245Z,9.60
2022-10-09T06:57:31.977Z,9.60
2022-10-09T06:59:59.823Z,9.60
2022-10-09T07:02:27.613Z,9.70
2022-10-09T07:04:55.387Z,9.70
2022-10-09T07:07:23.151Z,9.60
2022-10-09T07:09:53.283Z,9.60
2022-10-09T07:12:22.458Z,9.70
2022-10-09T07:14:50.158Z,9.80
2022-10-09T07:17:17.931Z,9.80
2022-10-09T07:19:45.706Z,9.90
2022-10-09T07:22:13.478Z,9.90
2022-10-09T07:24:41.213Z,10.00
2022-10-09T07:27:12.145Z,9.90
2022-10-09T07:29:41.383Z,9.90
2022-10-09T07:32:10.641Z,9.90
2022-10-09T07:34:38.561Z,10.00
2022-10-09T07:37:06.400Z,10.00
2022-10-09T07:39:35.411Z,10.10
2022-10-09T07:42:03.195Z,10.00
2022-10-09T07:44:31.034Z,10.00
2022-10-09T07:47:00.207Z,10.10
2022-10-09T07:49:27.951Z,10.20
2022-10-09T07:51:55.648Z,10.30
2022-10-09T07:54:23.385Z,10.50
2022-10-09T07:56:51.140Z,10.50
2022-10-09T07:59:18.915Z,10.40
2022-10-09T08:01:46.695Z,10.30
2022-10-09T08:04:15.966Z,10.20
2022-10-09T08:06:43.808Z,10.20
2022-10-09T08:09:11.697Z,10.20
2022-10-09T08:11:41.059Z,10.20
2022-10-09T08:14:10.306Z,10.20
2022-10-09T08:16:38.039Z,10.20
2022-10-09T08:19:05.776Z,10.40
2022-10-09T08:21:36.661Z,10.50
2022-10-09T08:24:04.653Z,10.60
2022-10-09T08:26:32.443Z,10.70
2022-10-09T08:29:01.017Z,10.80
2022-10-09T08:31:29.286Z,11.00
2022-10-09T08:33:58.715Z,11.20
2022-10-09T08:36:26.540Z,11.20
2022-10-09T08:38:55.794Z,11.20
2022-10-09T08:41:40.639Z,11.10
2022-10-09T08:44:14.696Z,11.10
2022-10-09T08:46:48.514Z,11.20
2022-10-09T08:49:21.504Z,11.00
2022-10-09T08:51:49.634Z,11.10
2022-10-09T08:54:23.335Z,11.30
2022-10-09T08:56:51.761Z,11.60
2022-10-09T08:59:19.584Z,11.80
2022-10-09T09:01:50.713Z,12.00
2022-10-09T09:04:24.984Z,12.20
2022-10-09T09:06:57.765Z,12.00
2022-10-09T09:09:32.041Z,12.00
2022-10-09T09:12:03.802Z,12.20
2022-10-09T09:14:38.658Z,12.30
2022-10-09T09:17:10.433Z,12.20
2022-10-09T09:19:45.621Z,12.40
2022-10-09T09:22:14.457Z,12.50
2022-10-09T09:24:46.507Z,12.60
2022-10-09T09:27:15.229Z,12.80
2022-10-09T09:29:44.784Z,13.00
2022-10-09T09:32:17.240Z,13.20
2022-10-09T09:34:45.326Z,13.20
2022-10-09T09:37:13.108Z,13.20
2022-10-09T09:42:32.812Z,13.40
2022-10-09T09:45:02.631Z,13.50
2022-10-09T09:47:34.192Z,13.50
2022-10-09T09:50:02.715Z,13.60
2022-10-09T09:52:31.340Z,13.50
2022-10-09T09:54:59.783Z,13.40
2022-10-09T09:57:34.108Z,13.40
2022-10-09T10:00:12.263Z,13.40
2022-10-09T10:02:39.994Z,13.50
2022-10-09T10:05:16.130Z,13.50
2022-10-09T10:07:44.146Z,13.80
2022-10-09T10:10:16.510Z,14.10
2022-10-09T10:12:53.959Z,14.50
2022-10-09T10:15:23.325Z,14.50
2022-10-09T10:17:55.796Z,14.60
2022-10-09T10:20:23.667Z,14.70
2022-10-09T10:22:55.962Z,14.80
2022-10-09T10:25:26.219Z,14.90
2022-10-09T10:27:57.778Z,14.90
2022-10-09T10:30:25.765Z,14.90
2022-10-09T10:32:56.670Z,15.00
2022-10-09T10:35:25.882Z,15.10
2022-10-09T10:37:57.357Z,15.30
2022-10-09T10:40:27.381Z,15.60
2022-10-09T10:43:02.220Z,15.90
2022-10-09T10:45:32.399Z,16.20
2022-10-09T10:48:01.853Z,16.40
2022-10-09T10:50:36.185Z,16.50
2022-10-09T10:53:07.799Z,16.50
2022-10-09T10:55:39.738Z,16.50
2022-10-09T10:58:17.337Z,16.70
2022-10-09T11:00:52.634Z,16.90
2022-10-09T11:03:28.517Z,16.90
2022-10-09T11:05:58.651Z,16.90
2022-10-09T11:08:36.846Z,17.10
2022-10-09T11:11:07.344Z,17.20
2022-10-09T11:13:41.020Z,17.40
2022-10-09T11:16:17.907Z,17.60
2022-10-09T11:18:52.184Z,17.70
2022-10-09T11:21:24.841Z,18.00
2022-10-09T11:24:02.051Z,18.20
2022-10-09T11:26:32.925Z,18.50
2022-10-09T11:29:03.797Z,18.70
2022-10-09T11:31:34.595Z,19.00
2022-10-09T11:34:06.227Z,19.30
2022-10-09T11:36:35.285Z,19.40
2022-10-09T11:39:03.955Z,19.40
2022-10-09T11:41:32.149Z,19.50
2022-10-09T11:44:17.332Z,19.70
2022-10-09T11:46:50.070Z,19.80
2022-10-09T11:49:20.767Z,19.80
2022-10-09T11:51:51.719Z,20.00
2022-10-09T11:54:20.683Z,20.20
2022-10-09T11:56:55.414Z,20.30
2022-10-09T11:59:26.167Z,20.40
2022-10-09T12:01:53.944Z,20.40
2022-10-09T12:04:32.355Z,20.40
2022-10-09T12:07:12.537Z,20.60
2022-10-09T12:09:41.189Z,20.80
2022-10-09T12:12:10.291Z,20.90
2022-10-09T12:14:40.606Z,21.00
2022-10-09T12:17:16.243Z,21.10
2022-10-09T12:19:44.398Z,21.20
2022-10-09T12:22:15.494Z,21.30
2022-10-09T12:24:46.339Z,21.40
2022-10-09T12:27:18.445Z,21.50
2022-10-09T12:29:48.980Z,21.70
2022-10-09T12:32:18.407Z,21.80
2022-10-09T12:34:48.100Z,21.80
2022-10-09T12:37:17.484Z,21.80
2022-10-09T12:39:45.515Z,21.80
2022-10-09T12:42:16.678Z,21.70
2022-10-09T12:44:45.485Z,21.50
2022-10-09T12:47:19.006Z,21.60
2022-10-09T12:49:55.436Z,21.70
2022-10-09T12:52:23.199Z,21.80
2022-10-09T12:54:50.938Z,22.10
2022-10-09T12:57:20.262Z,22.30
2022-10-09T12:59:50.780Z,22.60
2022-10-09T13:02:20.451Z,22.60
2022-10-09T13:04:59.420Z,22.50
2022-10-09T13:07:28.655Z,22.50
2022-10-09T13:10:00.727Z,22.40
2022-10-09T13:12:29.499Z,22.50
2022-10-09T13:14:58.210Z,22.60
2022-10-09T13:20:04.737Z,22.30
2022-10-09T13:22:35.077Z,22.20
2022-10-09T13:25:04.130Z,22.10
2022-10-09T13:27:33.310Z,22.20
2022-10-09T13:30:01.533Z,22.10
2022-10-09T13:32:30.973Z,22.00
2022-10-09T13:34:58.722Z,22.00
2022-10-09T13:37:27.564Z,22.00
2022-10-09T13:39:55.726Z,22.10
2022-10-09T13:42:25.077Z,22.20
2022-10-09T13:44:53.074Z,22.30
2022-10-09T13:47:24.893Z,22.30
2022-10-09T13:50:08.151Z,22.30
2022-10-09T13:52:36.000Z,22.30
2022-10-09T13:55:05.224Z,22.30
2022-10-09T13:57:32.958Z,22.30
2022-10-09T14:00:00.746Z,22.30
2022-10-09T14:02:28.512Z,22.40
2022-10-09T14:04:57.636Z,22.40
2022-10-09T14:07:25.366Z,22.50
2022-10-09T14:09:53.110Z,22.60
2022-10-09T14:12:20.840Z,22.50
2022-10-09T14:14:48.633Z,22.50
2022-10-09T14:17:16.613Z,22.50
2022-10-09T14:19:44.447Z,22.40
2022-10-09T14:22:14.680Z,22.40
2022-10-09T14:24:42.465Z,22.40
2022-10-09T14:27:10.265Z,22.30
2022-10-09T14:29:38.422Z,22.20
2022-10-09T14:32:06.728Z,22.20
2022-10-09T14:34:34.491Z,22.20
2022-10-09T14:37:07.288Z,22.10
2022-10-09T14:39:43.798Z,22.00
2022-10-09T14:42:11.734Z,22.10
2022-10-09T14:44:39.605Z,22.00
2022-10-09T14:47:07.341Z,22.00
2022-10-09T14:49:35.103Z,21.90
2022-10-09T14:52:02.806Z,22.00
2022-10-09T14:54:30.617Z,22.00
2022-10-09T14:56:59.681Z,22.00
2022-10-09T14:59:27.665Z,21.90
2022-10-09T15:01:58.063Z,22.00
2022-10-09T15:04:25.848Z,21.90
2022-10-09T15:06:53.774Z,21.80
2022-10-09T15:09:21.528Z,21.80
2022-10-09T15:11:49.283Z,21.80
2022-10-09T15:14:18.354Z,21.80
2022-10-09T15:16:46.953Z,21.80
2022-10-09T15:19:14.835Z,21.70
2022-10-09T15:21:42.583Z,21.70
2022-10-09T15:24:10.674Z,21.60
2022-10-09T15:26:38.448Z,21.60
2022-10-09T15:29:07.104Z,21.60
2022-10-09T15:31:37.034Z,21.60
2022-10-09T15:34:05.070Z,21.60
2022-10-09T15:36:35.153Z,21.70
2022-10-09T15:39:05.791Z,21.70
2022-10-09T15:41:34.685Z,21.70
2022-10-09T15:44:03.550Z,21.60
2022-10-09T15:46:31.801Z,21.50
2022-10-09T15:49:01.104Z,21.30
2022-10-09T15:51:30.015Z,21.20
2022-10-09T15:54:00.431Z,21.10
2022-10-09T15:56:28.762Z,21.00
2022-10-09T15:58:56.979Z,20.90
2022-10-09T16:01:24.839Z,20.80
2022-10-09T16:03:52.751Z,20.70
2022-10-09T16:06:23.980Z,20.60
2022-10-09T16:08:51.717Z,20.60
2022-10-09T16:11:21.888Z,20.40
2022-10-09T16:13:52.863Z,20.30
2022-10-09T16:16:21.674Z,20.20
2022-10-09T16:18:49.824Z,20.10
2022-10-09T16:21:18.517Z,20.00
2022-10-09T16:23:47.631Z,19.90
2022-10-09T16:26:16.509Z,19.70
2022-10-09T16:28:44.445Z,19.60
2022-10-09T16:31:18.471Z,19.50
2022-10-09T16:33:46.270Z,19.40
2022-10-09T16:36:13.994Z,19.30
2022-10-09T16:38:41.951Z,19.20
2022-10-09T16:41:11.672Z,19.10
2022-10-09T16:43:39.817Z,19.00
2022-10-09T16:46:16.691Z,18.80
2022-10-09T16:48:44.439Z,18.60
2022-10-09T16:51:13.025Z,18.40
2022-10-09T16:53:41.168Z,18.20
2022-10-09T16:56:12.030Z,17.90
2022-10-09T16:58:39.878Z,17.80
2022-10-09T17:01:10.036Z,17.50
2022-10-09T17:03:40.434Z,17.40
2022-10-09T17:06:09.412Z,17.20
2022-10-09T17:08:37.563Z,17.00
2022-10-09T17:11:06.847Z,16.80
2022-10-09T17:13:35.996Z,16.70
2022-10-09T17:16:05.419Z,16.50
2022-10-09T17:18:33.177Z,16.40
2022-10-09T17:21:02.046Z,16.30
2022-10-09T17:23:29.760Z,16.20
2022-10-09T17:25:57.955Z,16.00
2022-10-09T17:28:25.835Z,15.90
2022-10-09T17:30:55.062Z,15.80
2022-10-09T17:33:22.795Z,15.80
2022-10-09T17:35:50.620Z,15.70
2022-10-09T17:38:18.359Z,15.50
2022-10-09T17:40:46.154Z,15.30
2022-10-09T17:43:14.095Z,15.20
2022-10-09T17:45:42.344Z,15.10
2022-10-09T17:48:11.456Z,15.10
2022-10-09T17:50:39.255Z,15.00
2022-10-09T17:53:07.535Z,14.90
2022-10-09T17:55:38.428Z,14.90
2022-10-09T17:58:06.319Z,14.80
2022-10-09T18:00:34.027Z,14.60
2022-10-09T18:03:01.808Z,14.50
2022-10-09T18:05:31.126Z,14.40
2022-10-09T18:07:58.872Z,14.20
2022-10-09T18:10:26.677Z,14.10
2022-10-09T18:12:54.414Z,14.10
2022-10-09T18:15:22.201Z,14.00
2022-10-09T18:17:50.770Z,14.00
2022-10-09T18:20:18.887Z,13.90
2022-10-09T18:22:48.238Z,13.90
2022-10-09T18:25:16.188Z,13.80
2022-10-09T18:27:44.083Z,13.70
2022-10-09T18:30:15.316Z,13.70
2022-10-09T18:32:45.143Z,13.60
2022-10-09T18:35:13.048Z,13.50
2022-10-09T18:37:40.975Z,13.50
2022-10-09T18:40:14.058Z,13.40
2022-10-09T18:42:42.070Z,13.40
2022-10-09T18:45:11.122Z,13.30
2022-10-09T18:47:46.439Z,13.30
2022-10-09T18:50:15.767Z,13.20
2022-10-09T18:52:44.385Z,13.10
2022-10-09T18:55:15.457Z,13.00
2022-10-09T18:57:43.690Z,13.00
2022-10-09T19:00:14.824Z,12.90
2022-10-09T19:02:42.743Z,12.90
2022-10-09T19:05:10.935Z,12.80
2022-10-09T19:07:40.557Z,12.70
2022-10-09T19:10:17.945Z,12.70
2022-10-09T19:12:47.344Z,12.70
2022-10-09T19:15:16.296Z,12.60
2022-10-09T19:17:44.095Z,12.50
2022-10-09T19:20:13.672Z,12.50
2022-10-09T19:22:41.492Z,12.40
2022-10-09T19:25:09.626Z,12.30
2022-10-09T19:27:40.686Z,12.40
2022-10-09T19:30:10.860Z,12.30
2022-10-09T19:32:44.168Z,12.20
2022-10-09T19:35:14.831Z,12.20
2022-10-09T19:37:42.802Z,12.20
2022-10-09T19:40:10.716Z,12.10
2022-10-09T19:42:40.505Z,12.10
2022-10-09T19:45:11.437Z,11.90
2022-10-09T19:47:39.478Z,11.80
2022-10-09T19:50:16.463Z,11.70
2022-10-09T19:52:46.519Z,11.70
2022-10-09T19:55:14.342Z,11.70
2022-10-09T19:57:42.266Z,11.70
2022-10-09T20:00:12.438Z,11.70
2022-10-09T20:02:40.240Z,11.60
2022-10-09T20:05:08.396Z,11.50
2022-10-09T20:07:36.230Z,11.40
2022-10-09T20:10:04.069Z,11.40
2022-10-09T20:12:31.960Z,11.40
2022-10-09T20:14:59.700Z,11.30
2022-10-09T20:17:29.046Z,11.20
2022-10-09T20:19:57.046Z,11.10
2022-10-09T20:22:24.897Z,11.10
2022-10-09T20:24:53.849Z,11.10
2022-10-09T20:27:21.720Z,11.10
2022-10-09T20:29:49.610Z,11.00
2022-10-09T20:32:17.974Z,10.90
2022-10-09T20:34:47.317Z,10.80
2022-10-09T20:37:15.135Z,10.80
2022-10-09T20:39:42.904Z,10.80
2022-10-09T20:42:10.734Z,10.70
2022-10-09T20:44:38.725Z,10.80
2022-10-09T20:47:06.609Z,10.70
2022-10-09T20:49:34.471Z,10.70
2022-10-09T20:52:03.714Z,10.60
2022-10-09T20:54:31.873Z,10.60
2022-10-09T20:56:59.673Z,10.50
2022-10-09T20:59:27.455Z,10.50
2022-10-09T21:01:55.220Z,10.50
2022-10-09T21:04:23.221Z,10.40
2022-10-09T21:06:51.126Z,10.30
2022-10-09T21:09:20.316Z,10.30
2022-10-09T21:11:48.208Z,10.20
2022-10-09T21:14:16.050Z,10.20
2022-10-09T21:16:46.880Z,10.10
2022-10-09T21:19:14.829Z,10.10
2022-10-09T21:21:45.320Z,10.10
2022-10-09T21:24:15.290Z,10.00
2022-10-09T21:26:47.036Z,10.00
2022-10-09T21:29:14.938Z,9.90
2022-10-09T21:31:43.122Z,9.80
2022-10-09T21:34:11.415Z,9.70
2022-10-09T21:36:56.179Z,9.70
2022-10-09T21:39:31.698Z,9.60
2022-10-09T21:42:00.867Z,9.60
2022-10-09T21:44:28.708Z,9.60
2022-10-09T21:46:57.032Z,9.50
2022-10-09T21:49:25.779Z,9.50
2022-10-09T21:51:53.922Z,9.40
2022-10-09T21:54:22.161Z,9.50
2022-10-09T21:56:50.171Z,9.40
2022-10-09T21:59:19.455Z,9.40
2022-10-09T22:01:47.495Z,9.40
2022-10-09T22:04:15.371Z,9.40
2022-10-09T22:06:43.366Z,9.40
2022-10-09T22:09:11.293Z,9.50
2022-10-09T22:11:39.249Z,9.40
2022-10-09T22:14:08.266Z,9.40
2022-10-09T22:16:37.579Z,9.40
2022-10-09T22:19:05.455Z,9.40
2022-10-09T22:21:34.365Z,9.40
2022-10-09T22:24:04.800Z,9.30
2022-10-09T22:26:32.966Z,9.30
2022-10-09T22:29:03.417Z,9.30
2022-10-09T22:31:36.469Z,9.30
2022-10-09T22:34:12.097Z,9.20
2022-10-09T22:36:39.995Z,9.20
2022-10-09T22:39:08.275Z,9.20
2022-10-09T22:41:36.310Z,9.20
2022-10-09T22:44:05.212Z,9.10
2022-10-09T22:46:33.984Z,9.10
2022-10-09T22:49:02.218Z,9.10
2022-10-09T22:51:31.563Z,9.20
2022-10-09T22:53:59.707Z,9.10
2022-10-09T22:56:28.599Z,9.10
2022-10-09T22:58:58.545Z,9.10
2022-10-09T23:01:30.268Z,9.10
2022-10-09T23:03:58.431Z,9.10
2022-10-09T23:06:26.294Z,9.10
2022-10-09T23:08:55.481Z,9.10
2022-10-09T23:11:23.819Z,9.00
2022-10-09T23:13:53.833Z,9.00
2022-10-09T23:16:27.007Z,9.00
2022-10-09T23:18:56.039Z,9.00
2022-10-09T23:21:31.499Z,9.00
2022-10-09T23:24:00.987Z,9.00
2022-10-09T23:26:30.189Z,8.90
2022-10-09T23:28:59.331Z,8.90
2022-10-09T23:31:29.415Z,8.80
2022-10-09T23:33:57.535Z,8.80
2022-10-09T23:36:26.577Z,8.70
2022-10-09T23:38:57.401Z,8.70
2022-10-09T23:41:27.602Z,8.80
2022-10-09T23:43:55.922Z,8.80
2022-10-09T23:46:27.073Z,8.70
2022-10-09T23:48:57.485Z,8.60
2022-10-09T23:51:28.550Z,8.70
2022-10-09T23:53:56.632Z,8.70
2022-10-09T23:56:28.304Z,8.70
2022-10-09T23:58:56.863Z,8.60
